Time;durP1;ratioP1;P1;durP2;ratioP2;P2;SDS_P1;SDS_P2;PMS_P1;PMS_P2;Temp;Humidity;BMP_temperature;BMP_pressure;BME280_temperature;BME280_humidity;BME280_pressure;Samples;Min_cycle;Max_cycle;Signal;HPM_P1;HPM_P2
2023/12/01 00:02:15;;;;;;;21.90;13.73;;;3.20;99.90;;;;;;5099066;28;20184;-48
2023/12/01 00:04:43;;;;;;;35.30;24.27;;;5.50;1.00;;;;;;5099152;28;20173;-45
2023/12/01 00:07:08;;;;;;;34.77;28.10;;;7.20;1.00;;;;;;5097723;28;20228;-42
2023/12/01 00:09:34;;;;;;;43.60;35.30;;;8.20;1.00;;;;;;5098911;28;20458;-43
2023/12/01 00:11:59;;;;;;;32.37;28.80;;;8.90;1.00;;;;;;5099138;28;20455;-39
2023/12/01 00:14:25;;;;;;;29.93;26.70;;;9.40;1.00;;;;;;5098925;28;20504;-42
2023/12/01 00:16:50;;;;;;;24.40;21.80;;;9.10;1.00;;;;;;5099875;28;20400;-41
2023/12/01 00:19:16;;;;;;;22.33;19.97;;;8.30;1.00;;;;;;5097584;28;20181;-44
2023/12/01 00:21:42;;;;;;;20.77;18.60;;;7.50;1.00;;;;;;5097624;28;20364;-42
2023/12/01 00:24:07;;;;;;;22.20;20.03;;;6.90;1.00;;;;;;5079762;28;20183;-40
2023/12/01 00:26:33;;;;;;;24.50;21.90;;;6.30;1.00;;;;;;5079156;28;20177;-40
2023/12/01 00:28:59;;;;;;;22.93;20.47;;;5.90;1.00;;;;;;5096802;28;20215;-41
2023/12/01 00:31:24;;;;;;;22.83;20.50;;;5.50;1.00;;;;;;5097479;28;20293;-41
2023/12/01 00:33:51;;;;;;;22.63;20.27;;;5.20;1.00;;;;;;5098750;28;20176;-40
2023/12/01 00:36:17;;;;;;;21.40;19.30;;;4.90;1.00;;;;;;5098407;28;20175;-40
2023/12/01 00:38:43;;;;;;;21.50;19.30;;;4.70;99.90;;;;;;5098850;28;20434;-41
2023/12/01 00:41:08;;;;;;;21.80;19.50;;;4.50;99.90;;;;;;5079216;28;20183;-41
2023/12/01 00:43:34;;;;;;;21.23;19.00;;;4.40;42.10;;;;;;5098086;28;20519;-41
2023/12/01 00:46:00;;;;;;;21.53;19.40;;;4.30;1.00;;;;;;5098907;28;20181;-43
2023/12/01 00:48:26;;;;;;;21.27;18.70;;;4.20;99.90;;;;;;5096681;28;20196;-41
2023/12/01 00:50:52;;;;;;;21.10;18.93;;;4.10;99.90;;;;;;5097412;28;20430;-42
2023/12/01 00:53:18;;;;;;;19.00;17.00;;;4.00;89.20;;;;;;5097612;28;20497;-42
2023/12/01 00:55:43;;;;;;;21.73;19.40;;;4.00;14.30;;;;;;5097603;28;20188;-41
2023/12/01 00:58:09;;;;;;;21.37;17.97;;;3.90;1.00;;;;;;5097752;28;20173;-41
2023/12/01 01:00:35;;;;;;;20.23;18.13;;;3.90;1.00;;;;;;5079461;28;20223;-41
2023/12/01 01:03:01;;;;;;;20.27;18.10;;;3.80;1.00;;;;;;5098019;28;20192;-40
2023/12/01 01:05:26;;;;;;;22.93;19.70;;;3.70;1.00;;;;;;5098106;28;20457;-40
2023/12/01 01:07:52;;;;;;;23.50;21.03;;;3.70;9.50;;;;;;5098098;28;20518;-44
2023/12/01 01:10:17;;;;;;;21.60;19.10;;;3.70;36.70;;;;;;5097916;28;20263;-41
2023/12/01 01:12:43;;;;;;;21.93;19.63;;;3.60;99.90;;;;;;5097241;28;20173;-42
2023/12/01 01:15:09;;;;;;;23.07;19.77;;;3.60;96.30;;;;;;5096176;28;20543;-40
2023/12/01 01:17:35;;;;;;;24.93;20.30;;;3.60;77.00;;;;;;5095790;28;20177;-40
2023/12/01 01:20:00;;;;;;;23.30;20.27;;;3.50;96.20;;;;;;5096065;28;20821;-40
2023/12/01 01:22:26;;;;;;;21.03;17.70;;;3.50;35.80;;;;;;5097674;28;20562;-42
2023/12/01 01:24:52;;;;;;;24.67;20.23;;;3.40;23.80;;;;;;5097680;28;20268;-39
2023/12/01 01:27:18;;;;;;;21.20;18.73;;;3.30;99.90;;;;;;5097590;28;20173;-40
2023/12/01 01:29:44;;;;;;;24.97;20.80;;;3.20;99.90;;;;;;5097881;28;20918;-42
2023/12/01 01:32:13;;;;;;;23.73;20.00;;;3.20;99.90;;;;;;5075583;28;20495;-42
2023/12/01 01:34:39;;;;;;;22.80;20.47;;;3.20;99.90;;;;;;5076878;28;20173;-41
2023/12/01 01:37:05;;;;;;;22.03;19.60;;;3.10;99.90;;;;;;5075939;28;20834;-40
2023/12/01 01:39:31;;;;;;;22.10;19.10;;;3.10;99.90;;;;;;5076194;28;20419;-42
2023/12/01 01:41:56;;;;;;;23.40;20.93;;;3.10;99.90;;;;;;5075734;28;20808;-40
2023/12/01 01:44:22;;;;;;;23.47;19.77;;;3.00;99.90;;;;;;5077327;28;20178;-45
2023/12/01 01:46:50;;;;;;;26.17;20.70;;;3.00;99.90;;;;;;5075434;28;20202;-42
2023/12/01 01:49:16;;;;;;;23.23;19.40;;;3.00;99.90;;;;;;5076726;28;20485;-39
2023/12/01 01:51:42;;;;;;;23.93;21.30;;;2.90;99.90;;;;;;5076216;28;20407;-40
2023/12/01 01:54:07;;;;;;;23.20;19.87;;;2.90;99.90;;;;;;5074621;28;20415;-41
2023/12/01 01:56:34;;;;;;;29.67;21.27;;;2.70;1.00;;;;;;5075981;28;20192;-40
2023/12/01 01:59:00;;;;;;;25.47;21.77;;;2.60;1.00;;;;;;5074615;28;20261;-41
2023/12/01 02:01:26;;;;;;;25.87;21.10;;;2.60;1.00;;;;;;5076406;28;20427;-39
2023/12/01 02:03:53;;;;;;;22.80;19.77;;;2.50;1.00;;;;;;5076165;28;20431;-40
2023/12/01 02:06:19;;;;;;;22.87;20.10;;;2.50;1.00;;;;;;5075502;28;20181;-41
2023/12/01 02:08:45;;;;;;;25.37;21.43;;;2.50;1.00;;;;;;5058080;28;20467;-38
2023/12/01 02:11:13;;;;;;;28.93;22.27;;;2.50;1.00;;;;;;5075024;28;20488;-40
2023/12/01 02:13:39;;;;;;;25.83;22.20;;;2.60;7.20;;;;;;5076581;28;20848;-38
2023/12/01 02:16:07;;;;;;;26.57;21.97;;;2.60;21.50;;;;;;5058802;28;20432;-43
2023/12/01 02:18:35;;;;;;;28.60;23.00;;;2.60;7.20;;;;;;5074872;28;20416;-42
2023/12/01 02:21:01;;;;;;;25.00;21.77;;;2.60;12.90;;;;;;5074890;28;20430;-42
2023/12/01 02:23:27;;;;;;;27.70;22.70;;;2.60;30.40;;;;;;5075500;28;20427;-39
2023/12/01 02:25:53;;;;;;;24.80;22.07;;;2.60;29.40;;;;;;5076597;28;20530;-40
2023/12/01 02:28:19;;;;;;;26.43;22.70;;;2.60;20.50;;;;;;5075776;28;20605;-40
2023/12/01 02:30:52;;;;;;;24.73;20.23;;;2.60;8.00;;;;;;5078932;28;20701;-39
2023/12/01 02:33:19;;;;;;;25.50;22.73;;;2.60;1.00;;;;;;5096959;28;20414;-40
2023/12/01 02:35:49;;;;;;;25.60;21.97;;;2.60;1.00;;;;;;5096068;28;20505;-39
2023/12/01 02:38:15;;;;;;;22.93;19.40;;;2.60;1.00;;;;;;5096808;28;20528;-39
2023/12/01 02:40:49;;;;;;;25.60;21.67;;;2.60;1.00;;;;;;5096681;28;20440;-41
2023/12/01 02:43:15;;;;;;;23.13;19.63;;;2.60;1.00;;;;;;5096814;28;20180;-41
2023/12/01 02:45:40;;;;;;;27.57;23.27;;;2.60;1.00;;;;;;5097100;28;20406;-39
2023/12/01 02:48:06;;;;;;;24.60;21.47;;;2.60;1.00;;;;;;5096569;28;20418;-39
2023/12/01 02:50:32;;;;;;;25.77;22.77;;;2.50;1.00;;;;;;5079316;28;20184;-43
2023/12/01 02:52:58;;;;;;;24.80;21.63;;;2.50;1.00;;;;;;5095615;28;20187;-41
2023/12/01 02:55:24;;;;;;;25.17;21.77;;;2.50;18.30;;;;;;5096852;28;20430;-39
2023/12/01 02:57:50;;;;;;;24.80;21.17;;;2.50;41.30;;;;;;5096710;28;20422;-40
2023/12/01 03:00:16;;;;;;;26.40;21.97;;;2.50;33.80;;;;;;5099301;28;20504;-39
2023/12/01 03:02:43;;;;;;;22.83;20.30;;;2.50;50.80;;;;;;5100654;28;20305;-42
2023/12/01 03:05:09;;;;;;;27.97;22.53;;;2.50;91.40;;;;;;5101043;28;20441;-41
2023/12/01 03:07:38;;;;;;;24.57;21.10;;;2.60;44.70;;;;;;5100050;28;20822;-41
2023/12/01 03:10:05;;;;;;;23.70;20.10;;;2.60;46.30;;;;;;5083405;28;20473;-40
2023/12/01 03:12:31;;;;;;;25.03;22.00;;;2.60;53.90;;;;;;5100604;28;20421;-38
2023/12/01 03:14:59;;;;;;;26.37;21.33;;;2.50;54.40;;;;;;5100960;28;20414;-40
2023/12/01 03:17:25;;;;;;;25.17;21.70;;;2.50;94.50;;;;;;5099774;28;20181;-39
2023/12/01 03:19:51;;;;;;;23.80;20.47;;;2.50;96.60;;;;;;5082015;28;20422;-39
2023/12/01 03:22:18;;;;;;;25.90;20.90;;;2.50;91.60;;;;;;5100327;28;20254;-41
2023/12/01 03:24:47;;;;;;;25.63;22.77;;;2.50;94.00;;;;;;5100989;28;20422;-41
2023/12/01 03:27:25;;;;;;;21.97;19.47;;;2.50;92.70;;;;;;5100665;28;20856;-40
2023/12/01 03:29:52;;;;;;;27.37;20.97;;;2.50;96.10;;;;;;5083166;28;20484;-42
2023/12/01 03:32:18;;;;;;;25.73;21.57;;;2.50;87.30;;;;;;5100467;28;20732;-41
2023/12/01 03:34:44;;;;;;;27.03;20.90;;;2.50;70.30;;;;;;5099691;28;20525;-40
2023/12/01 03:37:09;;;;;;;27.43;20.67;;;2.50;49.20;;;;;;5100107;28;20780;-40
2023/12/01 03:39:35;;;;;;;24.03;20.90;;;2.50;46.50;;;;;;5082636;28;20314;-39
2023/12/01 03:42:01;;;;;;;22.43;19.67;;;2.50;57.80;;;;;;5082734;28;20222;-40
2023/12/01 03:44:26;;;;;;;23.60;21.10;;;2.50;84.40;;;;;;5082277;28;20272;-40
2023/12/01 03:46:52;;;;;;;25.03;21.73;;;2.50;77.40;;;;;;5100499;28;20196;-40
2023/12/01 03:49:18;;;;;;;23.07;20.43;;;2.50;79.40;;;;;;5100028;28;20242;-39
2023/12/01 03:51:44;;;;;;;25.77;21.97;;;2.50;76.10;;;;;;5100312;28;20176;-41
2023/12/01 03:54:09;;;;;;;23.00;19.70;;;2.50;94.30;;;;;;5099335;28;20169;-41
2023/12/01 03:56:37;;;;;;;22.40;19.83;;;2.50;81.70;;;;;;5098142;28;20692;-40
2023/12/01 03:59:03;;;;;;;23.80;20.80;;;2.50;79.30;;;;;;5098015;28;20169;-40
2023/12/01 04:01:29;;;;;;;24.03;20.20;;;2.50;81.50;;;;;;5098019;28;20434;-40
2023/12/01 04:03:54;;;;;;;24.97;22.17;;;2.50;65.40;;;;;;5080520;28;20434;-39
2023/12/01 04:06:20;;;;;;;22.50;20.20;;;2.50;50.10;;;;;;5098801;28;20222;-39
2023/12/01 04:08:46;;;;;;;28.63;21.57;;;2.50;35.70;;;;;;5098999;28;20243;-39
2023/12/01 04:11:11;;;;;;;24.77;21.00;;;2.50;44.70;;;;;;5097482;28;20184;-39
2023/12/01 04:13:37;;;;;;;27.80;21.60;;;2.50;79.20;;;;;;5098960;28;20180;-41
2023/12/01 04:16:03;;;;;;;26.07;20.27;;;2.50;99.90;;;;;;5098078;28;20425;-40
2023/12/01 04:18:29;;;;;;;23.37;20.63;;;2.50;99.90;;;;;;5097857;28;20183;-40
2023/12/01 04:20:57;;;;;;;26.90;22.13;;;2.40;99.90;;;;;;5098202;28;20683;-39
2023/12/01 04:23:23;;;;;;;26.80;23.27;;;2.40;99.90;;;;;;5098154;28;20864;-39
2023/12/01 04:25:49;;;;;;;22.40;19.93;;;2.40;99.90;;;;;;5097883;28;20563;-39
2023/12/01 04:28:15;;;;;;;24.40;21.23;;;2.40;99.90;;;;;;5098042;28;20450;-40
2023/12/01 04:30:42;;;;;;;24.70;20.73;;;2.40;99.90;;;;;;5098011;28;20417;-42
2023/12/01 04:33:08;;;;;;;22.90;20.40;;;2.40;99.90;;;;;;5081670;28;20421;-42
2023/12/01 04:35:35;;;;;;;23.50;20.90;;;2.40;99.90;;;;;;5098997;28;20716;-38
2023/12/01 04:38:03;;;;;;;21.40;19.00;;;2.40;99.90;;;;;;5098708;28;20188;-40
2023/12/01 04:40:29;;;;;;;23.60;19.83;;;2.40;99.90;;;;;;5079633;28;20415;-39
2023/12/01 04:42:56;;;;;;;20.37;18.27;;;2.40;95.80;;;;;;5078918;28;20427;-39
2023/12/01 04:45:27;;;;;;;21.40;19.20;;;2.40;99.90;;;;;;5079937;28;20164;-38
2023/12/01 04:47:53;;;;;;;21.77;19.10;;;2.30;99.90;;;;;;5097302;28;20418;-40
2023/12/01 04:50:21;;;;;;;23.87;20.00;;;2.40;99.90;;;;;;5097603;28;20907;-39
2023/12/01 04:52:55;;;;;;;23.20;20.03;;;2.40;99.90;;;;;;5096653;28;20418;-39
2023/12/01 04:55:25;;;;;;;21.57;19.13;;;2.40;99.90;;;;;;5097792;28;20848;-41
2023/12/01 04:57:50;;;;;;;22.70;19.63;;;2.40;99.90;;;;;;5081022;28;20422;-39
2023/12/01 05:00:21;;;;;;;22.00;19.47;;;2.40;99.90;;;;;;5098273;28;20406;-40
2023/12/01 05:03:01;;;;;;;22.43;18.77;;;2.40;99.90;;;;;;5097517;28;20473;-41
2023/12/01 05:05:28;;;;;;;22.70;19.00;;;2.40;99.90;;;;;;5095361;28;20426;-41
2023/12/01 05:07:57;;;;;;;22.83;20.37;;;2.40;99.90;;;;;;5095473;28;20481;-41
2023/12/01 05:10:25;;;;;;;25.93;20.20;;;2.40;99.90;;;;;;5076485;28;20875;-43
2023/12/01 05:12:54;;;;;;;22.50;19.60;;;2.40;99.90;;;;;;5076099;28;20746;-41
2023/12/01 05:15:24;;;;;;;22.20;19.80;;;2.40;99.90;;;;;;5093562;28;20403;-42
2023/12/01 05:17:51;;;;;;;21.57;18.17;;;2.40;99.90;;;;;;5093916;28;20442;-42
2023/12/01 05:20:17;;;;;;;22.03;19.67;;;2.40;99.90;;;;;;5093988;28;20460;-41
2023/12/01 05:22:43;;;;;;;25.07;20.47;;;2.40;99.90;;;;;;5095765;28;20418;-40
2023/12/01 05:25:15;;;;;;;20.43;18.23;;;2.40;99.90;;;;;;5092992;28;20422;-42
2023/12/01 05:27:50;;;;;;;22.70;19.10;;;2.40;99.90;;;;;;5091982;28;20246;-42
2023/12/01 05:30:24;;;;;;;22.20;18.77;;;2.40;99.90;;;;;;5092922;28;20462;-40
2023/12/01 05:32:51;;;;;;;21.60;18.53;;;2.40;99.90;;;;;;5092431;28;20462;-41
2023/12/01 05:35:17;;;;;;;37.27;29.50;;;2.40;99.90;;;;;;5075921;28;20438;-41
2023/12/01 05:37:48;;;;;;;46.33;32.10;;;2.50;99.90;;;;;;5075503;28;20449;-43
2023/12/01 05:40:21;;;;;;;50.40;35.17;;;2.40;99.90;;;;;;5093233;28;20415;-46
2023/12/01 05:42:49;;;;;;;38.07;27.90;;;2.40;99.90;;;;;;5075238;28;20418;-40
2023/12/01 05:45:15;;;;;;;22.83;19.23;;;2.40;99.90;;;;;;5092789;28;20398;-42
2023/12/01 05:47:42;;;;;;;16.37;14.40;;;2.40;99.90;;;;;;5095184;28;20415;-41
2023/12/01 05:50:30;;;;;;;15.53;14.00;;;2.40;99.90;;;;;;5078475;28;20466;-40
2023/12/01 05:52:57;;;;;;;15.67;14.07;;;2.40;99.90;;;;;;5095947;28;20430;-41
2023/12/01 05:55:24;;;;;;;18.17;16.27;;;2.40;99.90;;;;;;5075378;28;20422;-41
2023/12/01 05:57:55;;;;;;;21.83;19.30;;;2.30;99.90;;;;;;5073969;28;20427;-42
2023/12/01 06:00:23;;;;;;;18.03;16.23;;;2.30;99.90;;;;;;5092624;28;21082;-41
2023/12/01 06:02:52;;;;;;;16.80;15.10;;;2.30;99.90;;;;;;5073963;28;20430;-43
2023/12/01 06:05:19;;;;;;;17.13;15.43;;;2.20;99.90;;;;;;5074662;28;20578;-42
2023/12/01 06:07:54;;;;;;;15.40;13.90;;;2.20;99.90;;;;;;5090079;28;21277;-41
2023/12/01 06:10:22;;;;;;;15.07;11.93;;;2.20;99.90;;;;;;5072762;28;20468;-43
2023/12/01 06:12:48;;;;;;;14.03;12.37;;;2.30;99.90;;;;;;5090503;28;20693;-43
2023/12/01 06:15:16;;;;;;;14.17;12.53;;;2.30;99.90;;;;;;5073682;28;20740;-41
2023/12/01 06:17:43;;;;;;;35.53;20.63;;;2.30;99.90;;;;;;5087886;28;20480;-44
2023/12/01 06:20:17;;;;;;;25.10;15.83;;;2.30;99.90;;;;;;5086275;28;20753;-41
2023/12/01 06:22:58;;;;;;;25.90;19.57;;;2.30;99.90;;;;;;5088371;28;20414;-43
2023/12/01 06:25:27;;;;;;;20.30;16.43;;;2.30;99.90;;;;;;5089914;28;20759;-42
2023/12/01 06:27:53;;;;;;;20.27;17.63;;;2.30;99.90;;;;;;5089247;28;20503;-41
2023/12/01 06:30:19;;;;;;;19.53;15.30;;;2.30;99.90;;;;;;5086886;28;20522;-42
2023/12/01 06:32:45;;;;;;;29.40;19.90;;;2.30;99.90;;;;;;5087224;28;20558;-44
2023/12/01 06:35:15;;;;;;;27.03;19.27;;;2.30;99.90;;;;;;5090626;28;20326;-43
2023/12/01 06:37:42;;;;;;;39.93;26.50;;;2.30;99.90;;;;;;5075169;28;20430;-41
2023/12/01 06:40:11;;;;;;;26.00;18.77;;;2.30;99.90;;;;;;5073031;28;20492;-40
2023/12/01 06:42:43;;;;;;;22.97;16.70;;;2.30;99.90;;;;;;5110923;28;20883;-42
2023/12/01 06:45:11;;;;;;;17.17;14.03;;;2.20;99.90;;;;;;5093672;28;20881;-43
2023/12/01 06:47:38;;;;;;;25.57;18.20;;;2.20;99.90;;;;;;5110847;28;20659;-42
2023/12/01 06:50:05;;;;;;;41.70;26.30;;;2.20;99.90;;;;;;5109309;28;20756;-41
2023/12/01 06:52:32;;;;;;;52.77;32.87;;;2.20;99.90;;;;;;5108751;28;20671;-42
2023/12/01 06:54:57;;;;;;;41.00;26.90;;;2.20;99.90;;;;;;5110520;28;20513;-40
2023/12/01 06:57:23;;;;;;;27.57;19.87;;;2.20;99.90;;;;;;5109797;28;20531;-43
2023/12/01 06:59:49;;;;;;;27.10;19.47;;;2.20;99.90;;;;;;5111413;28;20176;-41
2023/12/01 07:02:17;;;;;;;24.87;19.27;;;2.20;99.90;;;;;;5113828;28;20194;-41
2023/12/01 07:04:44;;;;;;;20.00;17.17;;;2.20;99.90;;;;;;5113442;28;20175;-42
2023/12/01 07:07:09;;;;;;;26.77;19.07;;;2.20;99.90;;;;;;5114744;28;20909;-42
2023/12/01 07:09:35;;;;;;;14.53;13.00;;;2.20;99.90;;;;;;5111954;28;20460;-42
2023/12/01 07:12:04;;;;;;;13.97;12.47;;;2.20;99.90;;;;;;5112913;28;20277;-43
2023/12/01 07:14:30;;;;;;;16.23;13.67;;;2.20;99.90;;;;;;5111853;28;20168;-42
2023/12/01 07:16:56;;;;;;;16.63;14.40;;;2.20;99.90;;;;;;5110786;28;20429;-40
2023/12/01 07:19:22;;;;;;;20.63;15.00;;;2.20;99.90;;;;;;5110391;28;20715;-40
2023/12/01 07:21:47;;;;;;;19.43;16.03;;;2.20;99.90;;;;;;5112777;28;20176;-40
2023/12/01 07:24:13;;;;;;;18.60;15.53;;;2.20;99.90;;;;;;5112231;28;20183;-41
2023/12/01 07:26:38;;;;;;;14.67;12.20;;;2.20;99.90;;;;;;5112651;28;20183;-41
2023/12/01 07:29:04;;;;;;;13.17;11.60;;;2.20;99.90;;;;;;5113238;28;20590;-40
2023/12/01 07:31:32;;;;;;;18.10;14.20;;;2.20;99.90;;;;;;5095086;28;20695;-42
2023/12/01 07:33:57;;;;;;;14.17;12.70;;;2.20;99.90;;;;;;5112331;28;20433;-42
2023/12/01 07:36:23;;;;;;;20.33;15.77;;;2.20;99.90;;;;;;5113623;28;20676;-43
2023/12/01 07:38:49;;;;;;;19.40;15.33;;;2.30;99.90;;;;;;5113517;28;20267;-42
2023/12/01 07:41:14;;;;;;;20.10;14.30;;;2.20;99.90;;;;;;5114547;28;20172;-43
2023/12/01 07:43:40;;;;;;;19.23;14.80;;;2.20;99.90;;;;;;5112639;28;20184;-42
2023/12/01 07:46:06;;;;;;;12.40;11.20;;;2.30;99.90;;;;;;5097107;28;20184;-42
2023/12/01 07:48:33;;;;;;;19.60;14.77;;;2.30;99.90;;;;;;5099511;28;20714;-41
2023/12/01 07:50:59;;;;;;;32.27;21.37;;;2.30;99.90;;;;;;5115078;28;20420;-40
2023/12/01 07:53:24;;;;;;;22.97;15.93;;;2.30;99.90;;;;;;5113464;28;20171;-42
2023/12/01 07:55:50;;;;;;;15.97;11.80;;;2.30;99.90;;;;;;5113933;28;20434;-41
2023/12/01 07:58:16;;;;;;;12.97;11.57;;;2.40;99.90;;;;;;5113060;28;20591;-43
2023/12/01 08:00:42;;;;;;;16.40;12.50;;;2.40;99.90;;;;;;5094939;28;20168;-43
2023/12/01 08:03:08;;;;;;;12.47;11.20;;;2.40;99.90;;;;;;5094511;28;20471;-41
2023/12/01 08:05:36;;;;;;;20.07;13.87;;;2.40;99.90;;;;;;5112508;28;20282;-41
2023/12/01 08:08:03;;;;;;;13.90;12.50;;;2.50;99.90;;;;;;5113580;28;20614;-42
2023/12/01 08:10:28;;;;;;;16.83;13.20;;;2.50;99.90;;;;;;5112292;28;20479;-41
2023/12/01 08:12:57;;;;;;;15.93;12.90;;;2.50;99.90;;;;;;5115409;28;20421;-41
2023/12/01 08:15:23;;;;;;;17.43;13.57;;;2.50;99.90;;;;;;5096436;28;20262;-41
2023/12/01 08:17:49;;;;;;;14.17;12.27;;;2.60;99.90;;;;;;5114465;28;20437;-43
2023/12/01 08:20:16;;;;;;;14.80;11.33;;;2.60;99.90;;;;;;5117036;28;20486;-41
2023/12/01 08:22:46;;;;;;;16.60;12.53;;;2.60;99.90;;;;;;5097964;28;20418;-42
2023/12/01 08:25:12;;;;;;;17.10;12.70;;;2.60;91.50;;;;;;5113367;28;20414;-42
2023/12/01 08:27:39;;;;;;;19.43;14.47;;;2.60;49.00;;;;;;5114476;28;20826;-44
2023/12/01 08:30:06;;;;;;;19.70;13.87;;;2.60;53.60;;;;;;5097650;28;20453;-42
2023/12/01 08:32:32;;;;;;;17.37;12.50;;;2.60;51.10;;;;;;5095745;28;20530;-44
2023/12/01 08:34:58;;;;;;;18.10;12.53;;;2.70;63.80;;;;;;5079279;28;20433;-42
2023/12/01 08:37:23;;;;;;;16.60;13.60;;;2.70;49.70;;;;;;5113293;28;20898;-42
2023/12/01 08:39:50;;;;;;;14.40;12.47;;;2.70;36.20;;;;;;5114140;28;20210;-43
2023/12/01 08:42:19;;;;;;;14.10;11.97;;;2.70;18.50;;;;;;5114879;28;20565;-41
2023/12/01 08:44:45;;;;;;;11.53;10.40;;;2.70;7.40;;;;;;5114805;28;20507;-42
2023/12/01 08:47:13;;;;;;;11.53;10.37;;;2.80;7.90;;;;;;5114496;28;20468;-42
2023/12/01 08:49:39;;;;;;;12.30;10.90;;;2.80;9.60;;;;;;5116087;28;20631;-42
2023/12/01 08:52:07;;;;;;;9.90;8.90;;;2.90;1.00;;;;;;5115070;28;20809;-45
2023/12/01 08:54:33;;;;;;;9.23;8.23;;;3.00;1.00;;;;;;5114244;28;20431;-42
2023/12/01 08:56:59;;;;;;;8.10;7.30;;;3.00;1.00;;;;;;5114039;28;20517;-41
2023/12/01 08:59:24;;;;;;;7.30;6.60;;;3.10;1.00;;;;;;5116355;28;20946;-41
2023/12/01 09:01:50;;;;;;;7.43;6.70;;;3.20;1.00;;;;;;5101013;28;20221;-44
2023/12/01 09:04:15;;;;;;;8.30;6.97;;;3.20;1.00;;;;;;5118374;28;20295;-41
2023/12/01 09:06:41;;;;;;;7.67;6.97;;;3.20;1.00;;;;;;5117754;28;20588;-40
2023/12/01 09:09:07;;;;;;;7.00;6.30;;;3.20;99.90;;;;;;5118105;28;20191;-40
2023/12/01 09:11:32;;;;;;;7.83;7.03;;;3.20;99.90;;;;;;5117101;28;20179;-41
2023/12/01 09:13:59;;;;;;;7.00;6.30;;;3.20;99.90;;;;;;5115580;28;20234;-43
2023/12/01 09:16:24;;;;;;;6.93;6.33;;;3.30;99.90;;;;;;5115650;28;20418;-41
2023/12/01 09:18:50;;;;;;;8.00;6.70;;;3.30;99.90;;;;;;5114673;28;20215;-47
2023/12/01 09:21:17;;;;;;;7.63;3.97;;;3.40;99.90;;;;;;5115251;28;20176;-45
2023/12/01 09:23:44;;;;;;;14.43;6.27;;;4.70;1.00;;;;;;5116395;28;20425;-41
2023/12/01 09:26:18;;;;;;;12.10;9.07;;;7.20;1.00;;;;;;5116214;28;20708;-42
2023/12/01 09:28:44;;;;;;;9.27;8.10;;;8.40;1.00;;;;;;5116085;28;20651;-41
2023/12/01 09:31:10;;;;;;;8.33;7.50;;;7.90;1.00;;;;;;5113385;28;20473;-40
2023/12/01 09:33:37;;;;;;;7.00;6.30;;;7.10;1.00;;;;;;5113700;28;20587;-41
2023/12/01 09:36:04;;;;;;;7.47;6.40;;;6.50;1.00;;;;;;5114043;28;20406;-41
2023/12/01 09:38:31;;;;;;;7.60;6.77;;;6.00;1.00;;;;;;5114485;28;20439;-42
2023/12/01 09:40:57;;;;;;;7.87;7.17;;;5.60;99.90;;;;;;5095953;28;20701;-41
2023/12/01 09:43:23;;;;;;;8.40;7.60;;;5.30;99.90;;;;;;5114209;28;20446;-42
2023/12/01 09:45:50;;;;;;;9.10;8.17;;;5.00;99.90;;;;;;5096122;28;20241;-45
2023/12/01 09:48:18;;;;;;;8.73;7.90;;;4.80;1.00;;;;;;5114934;28;20417;-41
2023/12/01 09:50:44;;;;;;;10.27;8.13;;;4.50;99.90;;;;;;5114737;28;20505;-42
2023/12/01 09:53:11;;;;;;;9.47;8.57;;;4.40;1.00;;;;;;5113692;28;20563;-42
2023/12/01 09:55:36;;;;;;;10.00;7.97;;;4.30;1.00;;;;;;5108380;28;20372;-41
2023/12/01 09:58:02;;;;;;;7.73;7.00;;;4.30;1.00;;;;;;5110391;28;20588;-43
2023/12/01 10:00:27;;;;;;;8.33;7.37;;;4.10;1.00;;;;;;5110865;28;20638;-44
2023/12/01 10:02:53;;;;;;;7.70;7.00;;;4.10;99.90;;;;;;5111192;28;20179;-42
2023/12/01 10:05:19;;;;;;;7.90;7.10;;;4.10;99.90;;;;;;5110947;28;20186;-41
2023/12/01 10:07:45;;;;;;;6.67;6.07;;;4.20;99.90;;;;;;5112381;28;20237;-41
2023/12/01 10:10:19;;;;;;;7.67;6.70;;;4.20;7.60;;;;;;5094406;28;20219;-41
2023/12/01 10:13:04;;;;;;;7.80;7.00;;;4.20;1.00;;;;;;5113525;28;20425;-41
2023/12/01 10:15:31;;;;;;;7.13;6.43;;;4.20;1.00;;;;;;5094853;28;20429;-41
2023/12/01 10:18:13;;;;;;;7.00;6.40;;;4.20;99.90;;;;;;5112354;28;20419;-43
2023/12/01 10:20:42;;;;;;;7.30;6.57;;;4.20;99.90;;;;;;5115458;28;20413;-41
2023/12/01 10:23:18;;;;;;;7.10;6.47;;;4.30;99.90;;;;;;5096987;28;20425;-42
2023/12/01 10:25:48;;;;;;;6.80;6.17;;;4.30;96.10;;;;;;5113324;28;20834;-42
2023/12/01 10:28:18;;;;;;;8.03;7.13;;;4.30;23.00;;;;;;5114574;28;20428;-42
2023/12/01 10:30:54;;;;;;;7.00;6.40;;;4.20;1.00;;;;;;5115057;28;20469;-40
2023/12/01 10:33:30;;;;;;;6.77;6.17;;;4.20;1.00;;;;;;5096140;28;20441;-42
2023/12/01 10:36:01;;;;;;;8.00;7.20;;;4.10;1.00;;;;;;5095873;28;20421;-48
2023/12/01 10:38:27;;;;;;;7.70;6.80;;;4.10;1.00;;;;;;5112935;28;20425;-41
2023/12/01 10:40:54;;;;;;;7.43;6.73;;;4.00;1.00;;;;;;5114023;28;20425;-41
2023/12/01 10:43:21;;;;;;;7.87;7.10;;;3.90;1.00;;;;;;5094589;28;20731;-42
2023/12/01 10:45:52;;;;;;;8.40;7.20;;;3.80;1.00;;;;;;5110741;28;20444;-41
2023/12/01 10:48:19;;;;;;;8.50;7.60;;;3.70;1.00;;;;;;5096827;28;20417;-42
2023/12/01 10:50:49;;;;;;;10.43;7.63;;;3.60;1.00;;;;;;5112976;28;20418;-40
2023/12/01 10:53:15;;;;;;;8.27;6.60;;;3.50;1.00;;;;;;5111368;28;20424;-40
2023/12/01 10:55:48;;;;;;;8.50;7.30;;;3.50;99.90;;;;;;5111328;28;20432;-41
2023/12/01 10:58:25;;;;;;;7.90;7.10;;;3.50;99.90;;;;;;5113190;28;20691;-40
2023/12/01 11:00:52;;;;;;;8.90;7.27;;;3.50;99.90;;;;;;5113940;28;20417;-42
2023/12/01 11:03:22;;;;;;;7.93;6.80;;;3.70;99.90;;;;;;5095323;28;20776;-41
2023/12/01 11:05:51;;;;;;;7.77;7.03;;;3.70;99.90;;;;;;5111379;28;20417;-40
2023/12/01 11:08:30;;;;;;;7.43;6.73;;;3.80;99.90;;;;;;5094497;28;20425;-42
2023/12/01 11:11:18;;;;;;;7.30;6.60;;;3.90;99.90;;;;;;5093136;28;20689;-40
2023/12/01 11:14:03;;;;;;;9.80;6.80;;;4.00;1.00;;;;;;5092784;28;20414;-40
2023/12/01 11:16:31;;;;;;;7.53;6.83;;;4.00;1.00;;;;;;5110236;28;20417;-40
2023/12/01 11:18:56;;;;;;;7.23;6.50;;;4.00;1.00;;;;;;5092504;28;20460;-39
2023/12/01 11:21:22;;;;;;;8.63;7.10;;;4.00;1.00;;;;;;5077524;28;20430;-41
2023/12/01 11:23:49;;;;;;;7.50;6.80;;;3.90;1.00;;;;;;5115263;28;20175;-40
2023/12/01 11:26:16;;;;;;;8.33;7.43;;;3.80;1.00;;;;;;5115109;28;20179;-41
2023/12/01 11:28:53;;;;;;;8.17;7.37;;;3.70;1.00;;;;;;5115398;28;20461;-40
2023/12/01 11:31:20;;;;;;;10.00;7.63;;;3.60;1.00;;;;;;5116450;28;20575;-41
2023/12/01 11:33:51;;;;;;;10.90;9.53;;;3.60;1.00;;;;;;5115639;28;20421;-40
2023/12/01 11:36:28;;;;;;;10.20;9.20;;;3.60;1.00;;;;;;5099225;28;20426;-42
2023/12/01 11:39:27;;;;;;;10.13;9.10;;;3.60;1.00;;;;;;5098297;28;20528;-43
2023/12/01 11:41:59;;;;;;;11.53;10.33;;;3.60;1.00;;;;;;5096028;28;20518;-42
2023/12/01 11:44:27;;;;;;;11.07;9.97;;;3.60;31.90;;;;;;5114678;28;20428;-40
2023/12/01 11:46:55;;;;;;;11.87;10.07;;;3.60;1.00;;;;;;5114763;28;20834;-40
2023/12/01 11:49:25;;;;;;;10.83;9.60;;;3.60;1.00;;;;;;5112244;28;20461;-41
2023/12/01 11:51:50;;;;;;;11.70;10.20;;;3.50;24.00;;;;;;5096031;28;20897;-40
2023/12/01 11:54:16;;;;;;;11.50;9.43;;;3.60;59.90;;;;;;5115324;28;20846;-40
2023/12/01 11:56:47;;;;;;;14.80;11.00;;;3.60;83.60;;;;;;5095973;28;20178;-40
2023/12/01 11:59:13;;;;;;;13.60;11.03;;;3.50;1.00;;;;;;5115851;28;20474;-40
2023/12/01 12:01:39;;;;;;;36.93;24.83;;;3.40;1.00;;;;;;5112437;28;20425;-40
2023/12/01 12:04:09;;;;;;;16.40;14.30;;;3.40;1.00;;;;;;5112833;28;20279;-41
2023/12/01 12:06:35;;;;;;;14.87;12.07;;;3.30;17.80;;;;;;5096355;28;20398;-50
2023/12/01 12:09:06;;;;;;;20.00;17.90;;;3.20;1.00;;;;;;5097925;28;20544;-41
2023/12/01 12:11:36;;;;;;;20.47;18.37;;;3.20;1.00;;;;;;5114594;28;20194;-42
2023/12/01 12:14:04;;;;;;;14.43;12.07;;;3.10;1.00;;;;;;5114945;28;20422;-41
2023/12/01 12:16:30;;;;;;;16.67;12.70;;;3.00;1.00;;;;;;5111138;28;20425;-42
2023/12/01 12:19:00;;;;;;;17.80;14.07;;;3.00;99.90;;;;;;5079952;28;20429;-40
2023/12/01 12:21:29;;;;;;;21.57;16.20;;;2.90;99.90;;;;;;5097246;28;20439;-38
2023/12/01 12:23:55;;;;;;;21.87;15.80;;;2.90;99.90;;;;;;5113427;28;20786;-40
2023/12/01 12:26:26;;;;;;;20.30;15.60;;;2.80;99.90;;;;;;5112771;28;20429;-42
2023/12/01 12:28:55;;;;;;;17.57;14.10;;;2.80;99.90;;;;;;5078525;28;20501;-42
2023/12/01 12:31:25;;;;;;;17.77;14.30;;;2.80;1.00;;;;;;5072298;28;20482;-42
2023/12/01 12:33:54;;;;;;;20.93;17.10;;;2.80;1.00;;;;;;5088213;28;20496;-41
2023/12/01 12:36:21;;;;;;;18.80;15.70;;;2.80;1.00;;;;;;5090668;28;20700;-42
2023/12/01 12:38:50;;;;;;;21.53;17.07;;;2.80;99.90;;;;;;5089189;28;20630;-41
2023/12/01 12:41:27;;;;;;;21.37;15.57;;;2.70;99.90;;;;;;5091541;28;20830;-41
2023/12/01 12:43:57;;;;;;;24.07;17.70;;;2.70;1.00;;;;;;5089315;28;20445;-41
2023/12/01 12:46:24;;;;;;;24.63;18.10;;;2.70;1.00;;;;;;5089953;28;20568;-40